sensor_id;sensor_type;location;lat;lon;timestamp;P1;durP1;ratioP1;P2;durP2;ratioP2
3712;SDS011;1872;51.406;6.856;2022-08-19T00:00:20;9.30;;;8.23;;
3712;SDS011;1872;51.406;6.856;2022-08-19T00:02:47;10.73;;;9.30;;
3712;SDS011;1872;51.406;6.856;2022-08-19T00:05:13;9.13;;;8.23;;
3712;SDS011;1872;51.406;6.856;2022-08-19T00:07:41;9.83;;;8.83;;
3712;SDS011;1872;51.406;6.856;2022-08-19T00:10:10;9.60;;;8.30;;
3712;SDS011;1872;51.406;6.856;2022-08-19T00:12:39;10.37;;;9.30;;
3712;SDS011;1872;51.406;6.856;2022-08-19T00:15:09;9.43;;;8.43;;
3712;SDS011;1872;51.406;6.856;2022-08-19T00:17:38;12.97;;;9.83;;
3712;SDS011;1872;51.406;6.856;2022-08-19T00:20:05;11.10;;;9.37;;
3712;SDS011;1872;51.406;6.856;2022-08-19T00:22:32;9.30;;;8.40;;
3712;SDS011;1872;51.406;6.856;2022-08-19T00:24:58;11.37;;;10.03;;
3712;SDS011;1872;51.406;6.856;2022-08-19T00:27:26;9.93;;;8.30;;
3712;SDS011;1872;51.406;6.856;2022-08-19T00:29:51;10.33;;;8.90;;
3712;SDS011;1872;51.406;6.856;2022-08-19T00:32:17;13.17;;;10.10;;
3712;SDS011;1872;51.406;6.856;2022-08-19T00:34:43;10.23;;;9.23;;
3712;SDS011;1872;51.406;6.856;2022-08-19T00:37:08;11.23;;;9.10;;
3712;SDS011;1872;51.406;6.856;2022-08-19T00:39:34;11.80;;;10.60;;
3712;SDS011;1872;51.406;6.856;2022-08-19T00:42:00;10.27;;;9.17;;
3712;SDS011;1872;51.406;6.856;2022-08-19T00:44:29;10.70;;;9.60;;
3712;SDS011;1872;51.406;6.856;2022-08-19T00:46:56;13.27;;;10.83;;
3712;SDS011;1872;51.406;6.856;2022-08-19T00:49:34;13.40;;;10.70;;
3712;SDS011;1872;51.406;6.856;2022-08-19T00:52:04;12.30;;;9.50;;
3712;SDS011;1872;51.406;6.856;2022-08-19T00:54:35;11.80;;;10.13;;
3712;SDS011;1872;51.406;6.856;2022-08-19T00:57:03;12.40;;;10.00;;
3712;SDS011;1872;51.406;6.856;2022-08-19T00:59:35;15.03;;;10.60;;
3712;SDS011;1872;51.406;6.856;2022-08-19T01:02:03;14.30;;;10.57;;
3712;SDS011;1872;51.406;6.856;2022-08-19T01:04:29;12.33;;;9.50;;
3712;SDS011;1872;51.406;6.856;2022-08-19T01:06:57;11.90;;;10.30;;
3712;SDS011;1872;51.406;6.856;2022-08-19T01:09:24;11.57;;;9.97;;
3712;SDS011;1872;51.406;6.856;2022-08-19T01:11:50;11.33;;;8.93;;
3712;SDS011;1872;51.406;6.856;2022-08-19T01:14:16;11.73;;;10.40;;
3712;SDS011;1872;51.406;6.856;2022-08-19T01:16:43;10.23;;;9.23;;
3712;SDS011;1872;51.406;6.856;2022-08-19T01:19:24;12.40;;;10.60;;
3712;SDS011;1872;51.406;6.856;2022-08-19T01:22:01;11.70;;;9.27;;
3712;SDS011;1872;51.406;6.856;2022-08-19T01:24:30;11.17;;;9.80;;
3712;SDS011;1872;51.406;6.856;2022-08-19T01:26:58;10.60;;;9.50;;
3712;SDS011;1872;51.406;6.856;2022-08-19T01:29:24;11.43;;;8.17;;
3712;SDS011;1872;51.406;6.856;2022-08-19T01:31:50;12.93;;;9.67;;
3712;SDS011;1872;51.406;6.856;2022-08-19T01:34:17;11.27;;;10.07;;
3712;SDS011;1872;51.406;6.856;2022-08-19T01:36:46;9.97;;;8.90;;
3712;SDS011;1872;51.406;6.856;2022-08-19T01:39:15;11.53;;;10.13;;
3712;SDS011;1872;51.406;6.856;2022-08-19T01:41:46;10.57;;;9.37;;
3712;SDS011;1872;51.406;6.856;2022-08-19T01:44:14;12.00;;;9.27;;
3712;SDS011;1872;51.406;6.856;2022-08-19T01:46:43;12.17;;;9.30;;
3712;SDS011;1872;51.406;6.856;2022-08-19T01:49:12;14.03;;;10.10;;
3712;SDS011;1872;51.406;6.856;2022-08-19T01:51:42;11.80;;;9.80;;
3712;SDS011;1872;51.406;6.856;2022-08-19T01:54:08;12.10;;;9.50;;
3712;SDS011;1872;51.406;6.856;2022-08-19T01:56:36;10.53;;;9.43;;
3712;SDS011;1872;51.406;6.856;2022-08-19T01:59:04;11.37;;;9.57;;
3712;SDS011;1872;51.406;6.856;2022-08-19T02:01:34;9.20;;;8.30;;
3712;SDS011;1872;51.406;6.856;2022-08-19T02:04:00;10.40;;;9.07;;
3712;SDS011;1872;51.406;6.856;2022-08-19T02:06:28;9.93;;;8.90;;
3712;SDS011;1872;51.406;6.856;2022-08-19T02:08:55;10.43;;;9.40;;
3712;SDS011;1872;51.406;6.856;2022-08-19T02:11:23;11.07;;;8.37;;
3712;SDS011;1872;51.406;6.856;2022-08-19T02:13:52;10.80;;;9.70;;
3712;SDS011;1872;51.406;6.856;2022-08-19T02:16:19;12.20;;;9.10;;
3712;SDS011;1872;51.406;6.856;2022-08-19T02:18:45;10.00;;;8.90;;
3712;SDS011;1872;51.406;6.856;2022-08-19T02:21:14;11.20;;;9.93;;
3712;SDS011;1872;51.406;6.856;2022-08-19T02:23:42;12.47;;;9.17;;
3712;SDS011;1872;51.406;6.856;2022-08-19T02:26:07;11.47;;;9.00;;
3712;SDS011;1872;51.406;6.856;2022-08-19T02:28:33;9.77;;;8.77;;
3712;SDS011;1872;51.406;6.856;2022-08-19T02:30:59;10.83;;;9.73;;
3712;SDS011;1872;51.406;6.856;2022-08-19T02:33:26;12.67;;;10.30;;
3712;SDS011;1872;51.406;6.856;2022-08-19T02:35:52;11.10;;;9.73;;
3712;SDS011;1872;51.406;6.856;2022-08-19T02:38:17;10.10;;;8.93;;
3712;SDS011;1872;51.406;6.856;2022-08-19T02:40:55;10.57;;;9.00;;
3712;SDS011;1872;51.406;6.856;2022-08-19T02:43:22;9.67;;;8.53;;
3712;SDS011;1872;51.406;6.856;2022-08-19T02:45:49;11.77;;;8.63;;
3712;SDS011;1872;51.406;6.856;2022-08-19T02:48:18;10.97;;;8.43;;
3712;SDS011;1872;51.406;6.856;2022-08-19T02:50:47;8.87;;;7.90;;
3712;SDS011;1872;51.406;6.856;2022-08-19T02:53:26;11.40;;;10.03;;
3712;SDS011;1872;51.406;6.856;2022-08-19T02:56:05;10.33;;;9.00;;
3712;SDS011;1872;51.406;6.856;2022-08-19T02:58:32;10.33;;;8.97;;
3712;SDS011;1872;51.406;6.856;2022-08-19T03:00:57;11.53;;;9.63;;
3712;SDS011;1872;51.406;6.856;2022-08-19T03:03:25;11.43;;;9.33;;
3712;SDS011;1872;51.406;6.856;2022-08-19T03:05:51;12.33;;;10.10;;
3712;SDS011;1872;51.406;6.856;2022-08-19T03:08:29;12.27;;;8.70;;
3712;SDS011;1872;51.406;6.856;2022-08-19T03:10:55;14.63;;;10.20;;
3712;SDS011;1872;51.406;6.856;2022-08-19T03:13:20;11.93;;;10.10;;
3712;SDS011;1872;51.406;6.856;2022-08-19T03:15:50;11.20;;;9.20;;
3712;SDS011;1872;51.406;6.856;2022-08-19T03:18:18;10.43;;;9.43;;
3712;SDS011;1872;51.406;6.856;2022-08-19T03:20:44;9.77;;;8.77;;
3712;SDS011;1872;51.406;6.856;2022-08-19T03:23:14;10.63;;;9.33;;
3712;SDS011;1872;51.406;6.856;2022-08-19T03:25:43;12.13;;;9.97;;
3712;SDS011;1872;51.406;6.856;2022-08-19T03:28:13;10.90;;;9.80;;
3712;SDS011;1872;51.406;6.856;2022-08-19T03:30:42;12.60;;;9.50;;
3712;SDS011;1872;51.406;6.856;2022-08-19T03:33:21;12.37;;;9.80;;
3712;SDS011;1872;51.406;6.856;2022-08-19T03:35:47;11.87;;;10.50;;
3712;SDS011;1872;51.406;6.856;2022-08-19T03:38:23;13.00;;;9.73;;
3712;SDS011;1872;51.406;6.856;2022-08-19T03:40:49;12.50;;;9.90;;
3712;SDS011;1872;51.406;6.856;2022-08-19T03:43:15;10.83;;;9.70;;
3712;SDS011;1872;51.406;6.856;2022-08-19T03:45:42;10.30;;;9.20;;
3712;SDS011;1872;51.406;6.856;2022-08-19T03:48:08;12.37;;;10.77;;
3712;SDS011;1872;51.406;6.856;2022-08-19T03:50:38;11.90;;;9.70;;
3712;SDS011;1872;51.406;6.856;2022-08-19T03:53:05;12.60;;;9.80;;
3712;SDS011;1872;51.406;6.856;2022-08-19T03:55:31;10.73;;;8.80;;
3712;SDS011;1872;51.406;6.856;2022-08-19T03:57:56;12.53;;;9.93;;
3712;SDS011;1872;51.406;6.856;2022-08-19T04:00:25;13.17;;;9.43;;
3712;SDS011;1872;51.406;6.856;2022-08-19T04:02:51;10.67;;;9.13;;
3712;SDS011;1872;51.406;6.856;2022-08-19T04:05:24;9.60;;;8.60;;
3712;SDS011;1872;51.406;6.856;2022-08-19T04:07:54;11.13;;;9.67;;
3712;SDS011;1872;51.406;6.856;2022-08-19T04:10:23;10.20;;;9.10;;
3712;SDS011;1872;51.406;6.856;2022-08-19T04:12:50;10.57;;;9.47;;
3712;SDS011;1872;51.406;6.856;2022-08-19T04:15:15;9.37;;;8.37;;
3712;SDS011;1872;51.406;6.856;2022-08-19T04:17:43;10.93;;;9.03;;
3712;SDS011;1872;51.406;6.856;2022-08-19T04:20:10;9.80;;;8.80;;
3712;SDS011;1872;51.406;6.856;2022-08-19T04:22:36;10.30;;;9.13;;
3712;SDS011;1872;51.406;6.856;2022-08-19T04:25:01;11.33;;;10.13;;
3712;SDS011;1872;51.406;6.856;2022-08-19T04:27:28;12.00;;;9.00;;
3712;SDS011;1872;51.406;6.856;2022-08-19T04:29:54;9.57;;;8.63;;
3712;SDS011;1872;51.406;6.856;2022-08-19T04:32:20;11.53;;;9.50;;
3712;SDS011;1872;51.406;6.856;2022-08-19T04:34:48;12.23;;;9.30;;
3712;SDS011;1872;51.406;6.856;2022-08-19T04:37:14;13.33;;;10.87;;
3712;SDS011;1872;51.406;6.856;2022-08-19T04:39:40;10.10;;;9.00;;
3712;SDS011;1872;51.406;6.856;2022-08-19T04:42:24;11.43;;;9.87;;
3712;SDS011;1872;51.406;6.856;2022-08-19T04:45:05;10.50;;;9.40;;
3712;SDS011;1872;51.406;6.856;2022-08-19T04:47:34;11.00;;;9.80;;
3712;SDS011;1872;51.406;6.856;2022-08-19T04:50:02;11.53;;;10.27;;
3712;SDS011;1872;51.406;6.856;2022-08-19T04:52:30;13.20;;;9.70;;
3712;SDS011;1872;51.406;6.856;2022-08-19T04:54:57;12.03;;;10.40;;
3712;SDS011;1872;51.406;6.856;2022-08-19T04:57:23;14.20;;;10.00;;
3712;SDS011;1872;51.406;6.856;2022-08-19T04:59:49;10.80;;;9.37;;
3712;SDS011;1872;51.406;6.856;2022-08-19T05:02:19;11.30;;;9.40;;
3712;SDS011;1872;51.406;6.856;2022-08-19T05:04:47;13.20;;;10.20;;
3712;SDS011;1872;51.406;6.856;2022-08-19T05:07:13;13.70;;;9.97;;
3712;SDS011;1872;51.406;6.856;2022-08-19T05:09:39;16.60;;;10.93;;
3712;SDS011;1872;51.406;6.856;2022-08-19T05:12:05;14.23;;;11.03;;
3712;SDS011;1872;51.406;6.856;2022-08-19T05:14:33;14.30;;;12.00;;
3712;SDS011;1872;51.406;6.856;2022-08-19T05:17:01;14.50;;;10.87;;
3712;SDS011;1872;51.406;6.856;2022-08-19T05:19:27;17.20;;;12.73;;
3712;SDS011;1872;51.406;6.856;2022-08-19T05:22:12;21.80;;;14.60;;
3712;SDS011;1872;51.406;6.856;2022-08-19T05:24:58;18.00;;;13.70;;
3712;SDS011;1872;51.406;6.856;2022-08-19T05:27:25;17.27;;;13.30;;
3712;SDS011;1872;51.406;6.856;2022-08-19T05:29:51;20.73;;;14.00;;
3712;SDS011;1872;51.406;6.856;2022-08-19T05:32:16;18.70;;;14.70;;
3712;SDS011;1872;51.406;6.856;2022-08-19T05:34:42;23.17;;;15.57;;
3712;SDS011;1872;51.406;6.856;2022-08-19T05:37:10;22.13;;;15.80;;
3712;SDS011;1872;51.406;6.856;2022-08-19T05:39:36;27.10;;;17.10;;
3712;SDS011;1872;51.406;6.856;2022-08-19T05:42:09;22.40;;;17.67;;
3712;SDS011;1872;51.406;6.856;2022-08-19T05:44:40;31.37;;;19.60;;
3712;SDS011;1872;51.406;6.856;2022-08-19T05:47:12;27.87;;;18.60;;
3712;SDS011;1872;51.406;6.856;2022-08-19T05:49:42;23.10;;;17.20;;
3712;SDS011;1872;51.406;6.856;2022-08-19T05:52:09;26.23;;;17.90;;
3712;SDS011;1872;51.406;6.856;2022-08-19T05:54:37;23.80;;;16.57;;
3712;SDS011;1872;51.406;6.856;2022-08-19T05:57:10;31.60;;;22.47;;
3712;SDS011;1872;51.406;6.856;2022-08-19T05:59:38;31.70;;;20.40;;
3712;SDS011;1872;51.406;6.856;2022-08-19T06:02:06;32.53;;;21.83;;
3712;SDS011;1872;51.406;6.856;2022-08-19T06:04:34;30.27;;;21.13;;
3712;SDS011;1872;51.406;6.856;2022-08-19T06:07:00;30.70;;;21.97;;
3712;SDS011;1872;51.406;6.856;2022-08-19T06:09:33;33.03;;;21.90;;
3712;SDS011;1872;51.406;6.856;2022-08-19T06:12:02;34.87;;;23.30;;
3712;SDS011;1872;51.406;6.856;2022-08-19T06:14:31;35.03;;;23.33;;
3712;SDS011;1872;51.406;6.856;2022-08-19T06:16:59;35.30;;;24.40;;
3712;SDS011;1872;51.406;6.856;2022-08-19T06:19:27;32.63;;;22.90;;
3712;SDS011;1872;51.406;6.856;2022-08-19T06:21:55;32.20;;;22.63;;
3712;SDS011;1872;51.406;6.856;2022-08-19T06:24:38;34.20;;;23.83;;
3712;SDS011;1872;51.406;6.856;2022-08-19T06:27:04;35.70;;;24.47;;
3712;SDS011;1872;51.406;6.856;2022-08-19T06:29:33;34.70;;;25.20;;
3712;SDS011;1872;51.406;6.856;2022-08-19T06:32:01;38.73;;;25.40;;
3712;SDS011;1872;51.406;6.856;2022-08-19T06:34:29;39.00;;;27.33;;
3712;SDS011;1872;51.406;6.856;2022-08-19T06:37:01;35.53;;;24.07;;
3712;SDS011;1872;51.406;6.856;2022-08-19T06:39:29;39.57;;;25.60;;
3712;SDS011;1872;51.406;6.856;2022-08-19T06:41:59;37.60;;;25.10;;
3712;SDS011;1872;51.406;6.856;2022-08-19T06:44:28;36.90;;;25.67;;
3712;SDS011;1872;51.406;6.856;2022-08-19T06:47:00;36.87;;;26.73;;
3712;SDS011;1872;51.406;6.856;2022-08-19T06:49:29;42.10;;;28.30;;
3712;SDS011;1872;51.406;6.856;2022-08-19T06:51:58;38.17;;;26.70;;
3712;SDS011;1872;51.406;6.856;2022-08-19T06:54:25;36.50;;;25.73;;
3712;SDS011;1872;51.406;6.856;2022-08-19T06:56:59;36.47;;;26.33;;
3712;SDS011;1872;51.406;6.856;2022-08-19T06:59:29;39.40;;;28.17;;
3712;SDS011;1872;51.406;6.856;2022-08-19T07:01:57;34.90;;;26.43;;
3712;SDS011;1872;51.406;6.856;2022-08-19T07:04:30;37.03;;;26.90;;
3712;SDS011;1872;51.406;6.856;2022-08-19T07:07:18;32.23;;;25.33;;
3712;SDS011;1872;51.406;6.856;2022-08-19T07:09:44;35.23;;;25.43;;
3712;SDS011;1872;51.406;6.856;2022-08-19T07:12:11;35.20;;;26.73;;
3712;SDS011;1872;51.406;6.856;2022-08-19T07:14:42;35.00;;;26.17;;
3712;SDS011;1872;51.406;6.856;2022-08-19T07:17:11;37.70;;;26.90;;
3712;SDS011;1872;51.406;6.856;2022-08-19T07:19:37;34.53;;;27.77;;
3712;SDS011;1872;51.406;6.856;2022-08-19T07:22:05;36.37;;;26.70;;
3712;SDS011;1872;51.406;6.856;2022-08-19T07:24:32;39.07;;;28.97;;
3712;SDS011;1872;51.406;6.856;2022-08-19T07:27:00;37.67;;;25.40;;
3712;SDS011;1872;51.406;6.856;2022-08-19T07:29:28;38.00;;;25.80;;
3712;SDS011;1872;51.406;6.856;2022-08-19T07:31:58;35.80;;;25.77;;
3712;SDS011;1872;51.406;6.856;2022-08-19T07:34:27;39.57;;;27.30;;
3712;SDS011;1872;51.406;6.856;2022-08-19T07:36:54;37.80;;;26.87;;
3712;SDS011;1872;51.406;6.856;2022-08-19T07:39:25;28.97;;;21.03;;
3712;SDS011;1872;51.406;6.856;2022-08-19T07:41:53;25.23;;;21.10;;
3712;SDS011;1872;51.406;6.856;2022-08-19T07:44:22;33.53;;;24.83;;
3712;SDS011;1872;51.406;6.856;2022-08-19T07:46:50;15.47;;;13.33;;
3712;SDS011;1872;51.406;6.856;2022-08-19T07:49:18;21.13;;;16.47;;
3712;SDS011;1872;51.406;6.856;2022-08-19T07:51:46;23.87;;;18.83;;
3712;SDS011;1872;51.406;6.856;2022-08-19T07:54:27;22.73;;;17.60;;
3712;SDS011;1872;51.406;6.856;2022-08-19T07:56:56;25.73;;;19.80;;
3712;SDS011;1872;51.406;6.856;2022-08-19T07:59:23;23.57;;;18.90;;
3712;SDS011;1872;51.406;6.856;2022-08-19T08:01:49;27.13;;;20.37;;
3712;SDS011;1872;51.406;6.856;2022-08-19T08:04:16;26.07;;;19.90;;
3712;SDS011;1872;51.406;6.856;2022-08-19T08:07:01;16.30;;;14.47;;
3712;SDS011;1872;51.406;6.856;2022-08-19T08:09:47;15.00;;;12.70;;
3712;SDS011;1872;51.406;6.856;2022-08-19T08:12:20;15.63;;;13.63;;
3712;SDS011;1872;51.406;6.856;2022-08-19T08:14:54;13.33;;;11.90;;
3712;SDS011;1872;51.406;6.856;2022-08-19T08:17:23;18.53;;;14.00;;
3712;SDS011;1872;51.406;6.856;2022-08-19T08:19:50;23.00;;;16.13;;
3712;SDS011;1872;51.406;6.856;2022-08-19T08:22:17;22.77;;;17.07;;
3712;SDS011;1872;51.406;6.856;2022-08-19T08:25:04;22.23;;;16.90;;
3712;SDS011;1872;51.406;6.856;2022-08-19T08:27:50;20.17;;;15.10;;
3712;SDS011;1872;51.406;6.856;2022-08-19T08:30:18;15.70;;;13.40;;
3712;SDS011;1872;51.406;6.856;2022-08-19T08:32:45;20.50;;;15.10;;
3712;SDS011;1872;51.406;6.856;2022-08-19T08:35:12;19.40;;;12.70;;
3712;SDS011;1872;51.406;6.856;2022-08-19T08:37:41;13.87;;;10.80;;
3712;SDS011;1872;51.406;6.856;2022-08-19T08:46:00;14.40;;;11.83;;
3712;SDS011;1872;51.406;6.856;2022-08-19T08:48:36;17.63;;;13.40;;
3712;SDS011;1872;51.406;6.856;2022-08-19T08:51:07;13.23;;;10.77;;
3712;SDS011;1872;51.406;6.856;2022-08-19T08:53:36;7.90;;;7.10;;
3712;SDS011;1872;51.406;6.856;2022-08-19T08:56:03;15.57;;;12.93;;
3712;SDS011;1872;51.406;6.856;2022-08-19T08:58:36;15.00;;;12.50;;
3712;SDS011;1872;51.406;6.856;2022-08-19T09:01:34;19.33;;;14.20;;
3712;SDS011;1872;51.406;6.856;2022-08-19T09:04:05;16.47;;;12.30;;
3712;SDS011;1872;51.406;6.856;2022-08-19T09:09:18;12.03;;;9.83;;
3712;SDS011;1872;51.406;6.856;2022-08-19T09:17:03;13.10;;;11.00;;
3712;SDS011;1872;51.406;6.856;2022-08-19T09:19:33;15.73;;;11.47;;
3712;SDS011;1872;51.406;6.856;2022-08-19T09:22:20;9.77;;;7.93;;
3712;SDS011;1872;51.406;6.856;2022-08-19T09:24:49;8.10;;;7.30;;
3712;SDS011;1872;51.406;6.856;2022-08-19T09:27:18;10.67;;;7.77;;
3712;SDS011;1872;51.406;6.856;2022-08-19T09:29:45;11.67;;;7.97;;
3712;SDS011;1872;51.406;6.856;2022-08-19T09:32:13;8.37;;;7.53;;
3712;SDS011;1872;51.406;6.856;2022-08-19T09:34:39;16.73;;;11.07;;
3712;SDS011;1872;51.406;6.856;2022-08-19T09:37:09;10.27;;;8.33;;
3712;SDS011;1872;51.406;6.856;2022-08-19T09:39:35;12.93;;;11.00;;
3712;SDS011;1872;51.406;6.856;2022-08-19T09:42:05;12.17;;;9.20;;
3712;SDS011;1872;51.406;6.856;2022-08-19T09:44:37;17.40;;;14.00;;
3712;SDS011;1872;51.406;6.856;2022-08-19T09:47:03;19.33;;;15.67;;
3712;SDS011;1872;51.406;6.856;2022-08-19T09:49:29;22.13;;;12.57;;
3712;SDS011;1872;51.406;6.856;2022-08-19T09:51:56;11.87;;;9.33;;
3712;SDS011;1872;51.406;6.856;2022-08-19T09:54:22;20.27;;;15.03;;
3712;SDS011;1872;51.406;6.856;2022-08-19T09:56:48;21.93;;;16.60;;
3712;SDS011;1872;51.406;6.856;2022-08-19T09:59:14;16.97;;;13.90;;
3712;SDS011;1872;51.406;6.856;2022-08-19T10:01:40;22.03;;;16.37;;
3712;SDS011;1872;51.406;6.856;2022-08-19T10:04:06;14.77;;;11.87;;
3712;SDS011;1872;51.406;6.856;2022-08-19T10:06:36;20.83;;;16.00;;
3712;SDS011;1872;51.406;6.856;2022-08-19T10:09:04;17.60;;;13.90;;
3712;SDS011;1872;51.406;6.856;2022-08-19T10:11:40;19.43;;;13.77;;
3712;SDS011;1872;51.406;6.856;2022-08-19T10:14:06;20.00;;;14.37;;
3712;SDS011;1872;51.406;6.856;2022-08-19T10:16:33;14.60;;;12.07;;
3712;SDS011;1872;51.406;6.856;2022-08-19T10:19:00;18.00;;;14.20;;
3712;SDS011;1872;51.406;6.856;2022-08-19T10:21:30;23.67;;;18.07;;
3712;SDS011;1872;51.406;6.856;2022-08-19T10:23:58;11.20;;;9.37;;
3712;SDS011;1872;51.406;6.856;2022-08-19T10:26:26;22.33;;;14.40;;
3712;SDS011;1872;51.406;6.856;2022-08-19T10:28:54;24.20;;;17.50;;
3712;SDS011;1872;51.406;6.856;2022-08-19T10:31:24;16.20;;;12.43;;
3712;SDS011;1872;51.406;6.856;2022-08-19T10:33:53;14.40;;;11.90;;
3712;SDS011;1872;51.406;6.856;2022-08-19T10:36:23;12.30;;;10.83;;
3712;SDS011;1872;51.406;6.856;2022-08-19T10:38:54;19.00;;;15.47;;
3712;SDS011;1872;51.406;6.856;2022-08-19T10:41:24;21.97;;;17.30;;
3712;SDS011;1872;51.406;6.856;2022-08-19T10:43:52;19.13;;;15.37;;
3712;SDS011;1872;51.406;6.856;2022-08-19T10:46:20;16.90;;;14.37;;
3712;SDS011;1872;51.406;6.856;2022-08-19T10:48:48;20.47;;;13.73;;
3712;SDS011;1872;51.406;6.856;2022-08-19T10:51:15;11.80;;;10.60;;
3712;SDS011;1872;51.406;6.856;2022-08-19T10:54:07;16.03;;;12.13;;
3712;SDS011;1872;51.406;6.856;2022-08-19T10:56:33;11.23;;;9.90;;
3712;SDS011;1872;51.406;6.856;2022-08-19T10:59:19;16.07;;;11.73;;
3712;SDS011;1872;51.406;6.856;2022-08-19T11:01:54;14.80;;;11.30;;
3712;SDS011;1872;51.406;6.856;2022-08-19T11:04:27;13.90;;;12.20;;
3712;SDS011;1872;51.406;6.856;2022-08-19T11:06:52;12.20;;;10.27;;
3712;SDS011;1872;51.406;6.856;2022-08-19T11:09:20;17.20;;;13.97;;
3712;SDS011;1872;51.406;6.856;2022-08-19T11:12:01;16.97;;;13.40;;
3712;SDS011;1872;51.406;6.856;2022-08-19T11:14:31;15.13;;;13.00;;
3712;SDS011;1872;51.406;6.856;2022-08-19T11:16:58;19.80;;;14.87;;
3712;SDS011;1872;51.406;6.856;2022-08-19T11:19:25;15.27;;;11.47;;
3712;SDS011;1872;51.406;6.856;2022-08-19T11:21:51;16.73;;;12.50;;
3712;SDS011;1872;51.406;6.856;2022-08-19T11:24:20;15.93;;;10.73;;
3712;SDS011;1872;51.406;6.856;2022-08-19T11:26:50;13.30;;;10.23;;
3712;SDS011;1872;51.406;6.856;2022-08-19T11:29:21;10.00;;;8.77;;
3712;SDS011;1872;51.406;6.856;2022-08-19T11:31:50;9.97;;;9.07;;
3712;SDS011;1872;51.406;6.856;2022-08-19T11:34:20;12.60;;;9.30;;
3712;SDS011;1872;51.406;6.856;2022-08-19T11:36:50;10.20;;;9.23;;
3712;SDS011;1872;51.406;6.856;2022-08-19T11:39:19;8.87;;;8.07;;
3712;SDS011;1872;51.406;6.856;2022-08-19T11:41:46;10.87;;;9.13;;
3712;SDS011;1872;51.406;6.856;2022-08-19T11:44:13;10.20;;;9.20;;
3712;SDS011;1872;51.406;6.856;2022-08-19T11:46:39;14.07;;;10.30;;
3712;SDS011;1872;51.406;6.856;2022-08-19T11:49:06;11.97;;;10.57;;
3712;SDS011;1872;51.406;6.856;2022-08-19T11:51:34;13.47;;;10.40;;
3712;SDS011;1872;51.406;6.856;2022-08-19T11:54:04;11.97;;;10.77;;
3712;SDS011;1872;51.406;6.856;2022-08-19T11:56:31;11.17;;;10.03;;
3712;SDS011;1872;51.406;6.856;2022-08-19T11:59:00;13.70;;;11.67;;
3712;SDS011;1872;51.406;6.856;2022-08-19T12:01:26;11.27;;;10.00;;
3712;SDS011;1872;51.406;6.856;2022-08-19T12:03:53;8.80;;;8.00;;
3712;SDS011;1872;51.406;6.856;2022-08-19T12:06:21;10.03;;;8.80;;
3712;SDS011;1872;51.406;6.856;2022-08-19T12:08:52;10.10;;;9.10;;
3712;SDS011;1872;51.406;6.856;2022-08-19T12:11:21;11.80;;;9.80;;
3712;SDS011;1872;51.406;6.856;2022-08-19T12:13:54;8.90;;;8.00;;
3712;SDS011;1872;51.406;6.856;2022-08-19T12:16:21;8.70;;;7.80;;
3712;SDS011;1872;51.406;6.856;2022-08-19T12:18:49;8.90;;;8.00;;
3712;SDS011;1872;51.406;6.856;2022-08-19T12:21:24;10.03;;;8.93;;
3712;SDS011;1872;51.406;6.856;2022-08-19T12:23:53;11.00;;;8.20;;
3712;SDS011;1872;51.406;6.856;2022-08-19T12:26:21;9.37;;;8.17;;
3712;SDS011;1872;51.406;6.856;2022-08-19T12:28:47;9.70;;;7.87;;
3712;SDS011;1872;51.406;6.856;2022-08-19T12:31:13;10.47;;;8.43;;
3712;SDS011;1872;51.406;6.856;2022-08-19T12:33:40;8.50;;;7.70;;
3712;SDS011;1872;51.406;6.856;2022-08-19T12:36:10;9.57;;;8.40;;
3712;SDS011;1872;51.406;6.856;2022-08-19T12:38:37;12.10;;;7.93;;
3712;SDS011;1872;51.406;6.856;2022-08-19T12:41:09;8.53;;;7.60;;
3712;SDS011;1872;51.406;6.856;2022-08-19T12:43:39;11.00;;;7.43;;
3712;SDS011;1872;51.406;6.856;2022-08-19T12:46:07;8.80;;;8.00;;
3712;SDS011;1872;51.406;6.856;2022-08-19T12:48:33;11.30;;;7.53;;
3712;SDS011;1872;51.406;6.856;2022-08-19T12:50:59;8.07;;;7.27;;
3712;SDS011;1872;51.406;6.856;2022-08-19T12:53:26;8.10;;;7.30;;
3712;SDS011;1872;51.406;6.856;2022-08-19T12:55:59;8.00;;;7.20;;
3712;SDS011;1872;51.406;6.856;2022-08-19T12:58:26;7.80;;;7.00;;
3712;SDS011;1872;51.406;6.856;2022-08-19T13:00:52;8.43;;;7.30;;
3712;SDS011;1872;51.406;6.856;2022-08-19T13:03:18;7.00;;;6.40;;
3712;SDS011;1872;51.406;6.856;2022-08-19T13:05:44;8.37;;;6.90;;
3712;SDS011;1872;51.406;6.856;2022-08-19T13:08:09;10.63;;;7.57;;
3712;SDS011;1872;51.406;6.856;2022-08-19T13:10:36;7.90;;;7.00;;
3712;SDS011;1872;51.406;6.856;2022-08-19T13:13:04;7.20;;;6.50;;
3712;SDS011;1872;51.406;6.856;2022-08-19T13:15:34;9.97;;;7.60;;
3712;SDS011;1872;51.406;6.856;2022-08-19T13:18:08;7.03;;;6.33;;
3712;SDS011;1872;51.406;6.856;2022-08-19T13:20:35;8.77;;;6.60;;
3712;SDS011;1872;51.406;6.856;2022-08-19T13:23:03;6.97;;;6.27;;
3712;SDS011;1872;51.406;6.856;2022-08-19T13:25:29;7.20;;;6.10;;
3712;SDS011;1872;51.406;6.856;2022-08-19T13:27:58;7.30;;;6.13;;
3712;SDS011;1872;51.406;6.856;2022-08-19T13:30:24;7.87;;;6.70;;
3712;SDS011;1872;51.406;6.856;2022-08-19T13:33:09;6.23;;;5.63;;
3712;SDS011;1872;51.406;6.856;2022-08-19T13:35:36;6.53;;;6.03;;
3712;SDS011;1872;51.406;6.856;2022-08-19T13:38:02;6.80;;;6.20;;
3712;SDS011;1872;51.406;6.856;2022-08-19T13:40:30;6.13;;;5.37;;
3712;SDS011;1872;51.406;6.856;2022-08-19T13:43:01;7.60;;;6.83;;
3712;SDS011;1872;51.406;6.856;2022-08-19T13:45:29;6.57;;;5.97;;
3712;SDS011;1872;51.406;6.856;2022-08-19T13:48:02;7.00;;;6.40;;
3712;SDS011;1872;51.406;6.856;2022-08-19T13:50:34;7.80;;;6.63;;
3712;SDS011;1872;51.406;6.856;2022-08-19T13:53:06;7.47;;;6.77;;
3712;SDS011;1872;51.406;6.856;2022-08-19T13:55:33;7.90;;;5.73;;
3712;SDS011;1872;51.406;6.856;2022-08-19T13:58:01;10.10;;;6.80;;
3712;SDS011;1872;51.406;6.856;2022-08-19T14:00:29;7.13;;;6.30;;
3712;SDS011;1872;51.406;6.856;2022-08-19T14:02:57;6.47;;;5.97;;
3712;SDS011;1872;51.406;6.856;2022-08-19T14:05:24;7.00;;;6.30;;
3712;SDS011;1872;51.406;6.856;2022-08-19T14:07:51;7.77;;;6.97;;
3712;SDS011;1872;51.406;6.856;2022-08-19T14:10:17;6.07;;;5.50;;
3712;SDS011;1872;51.406;6.856;2022-08-19T14:12:46;9.93;;;6.23;;
3712;SDS011;1872;51.406;6.856;2022-08-19T14:15:13;7.47;;;6.27;;
3712;SDS011;1872;51.406;6.856;2022-08-19T14:17:40;5.77;;;5.27;;
3712;SDS011;1872;51.406;6.856;2022-08-19T14:20:08;7.07;;;6.47;;
3712;SDS011;1872;51.406;6.856;2022-08-19T14:22:39;7.00;;;6.40;;
3712;SDS011;1872;51.406;6.856;2022-08-19T14:25:06;7.33;;;6.73;;
3712;SDS011;1872;51.406;6.856;2022-08-19T14:27:34;7.23;;;6.60;;
3712;SDS011;1872;51.406;6.856;2022-08-19T14:30:03;7.23;;;6.53;;
3712;SDS011;1872;51.406;6.856;2022-08-19T14:32:30;8.00;;;7.20;;
3712;SDS011;1872;51.406;6.856;2022-08-19T14:34:56;8.50;;;7.70;;
3712;SDS011;1872;51.406;6.856;2022-08-19T14:37:21;10.40;;;9.30;;
3712;SDS011;1872;51.406;6.856;2022-08-19T14:39:47;7.87;;;7.13;;
3712;SDS011;1872;51.406;6.856;2022-08-19T14:42:18;8.83;;;8.07;;
3712;SDS011;1872;51.406;6.856;2022-08-19T14:44:44;8.10;;;7.30;;
3712;SDS011;1872;51.406;6.856;2022-08-19T14:47:09;6.80;;;6.17;;
3712;SDS011;1872;51.406;6.856;2022-08-19T14:49:38;7.10;;;6.50;;
3712;SDS011;1872;51.406;6.856;2022-08-19T14:52:06;7.20;;;6.13;;
3712;SDS011;1872;51.406;6.856;2022-08-19T14:54:32;7.20;;;6.60;;
3712;SDS011;1872;51.406;6.856;2022-08-19T14:56:59;7.00;;;6.40;;
3712;SDS011;1872;51.406;6.856;2022-08-19T14:59:24;7.63;;;7.00;;
3712;SDS011;1872;51.406;6.856;2022-08-19T15:01:50;7.13;;;6.43;;
3712;SDS011;1872;51.406;6.856;2022-08-19T15:04:16;7.00;;;6.40;;
3712;SDS011;1872;51.406;6.856;2022-08-19T15:06:42;6.83;;;6.23;;
3712;SDS011;1872;51.406;6.856;2022-08-19T15:09:08;7.17;;;6.57;;
3712;SDS011;1872;51.406;6.856;2022-08-19T15:11:35;7.00;;;6.40;;
3712;SDS011;1872;51.406;6.856;2022-08-19T15:14:04;6.70;;;6.10;;
3712;SDS011;1872;51.406;6.856;2022-08-19T15:16:31;7.30;;;6.60;;
3712;SDS011;1872;51.406;6.856;2022-08-19T15:18:58;6.53;;;5.30;;
3712;SDS011;1872;51.406;6.856;2022-08-19T15:21:25;5.80;;;5.33;;